Time;durP1;ratioP1;P1;durP2;ratioP2;P2;SDS_P1;SDS_P2;PMS_P1;PMS_P2;Temp;Humidity;BMP_temperature;BMP_pressure;BME280_temperature;BME280_humidity;BME280_pressure;Samples;Min_cycle;Max_cycle;Signal;HPM_P1;HPM_P2
2023/05/27 00:00:55;;;;;;;3.90;3.60;;;;;;;18.48;88.36;99372.59;5031498;28;20197;-73
2023/05/27 00:03:21;;;;;;;4.60;4.20;;;;;;;18.27;85.91;99357.22;5031722;28;20193;-73
2023/05/27 00:05:48;;;;;;;8.30;4.53;;;;;;;18.28;86.05;99362.38;5032026;28;20678;-73
2023/05/27 00:08:15;;;;;;;5.10;4.13;;;;;;;18.12;86.64;99354.31;5032322;28;20612;-73
2023/05/27 00:10:42;;;;;;;6.43;4.53;;;;;;;18.12;86.89;99348.94;5031456;28;20575;-73
2023/05/27 00:13:10;;;;;;;9.77;4.70;;;;;;;17.96;87.44;99344.41;5031680;28;20282;-73
2023/05/27 00:15:39;;;;;;;4.00;3.77;;;;;;;17.88;87.98;99352.91;5031727;28;20206;-73
2023/05/27 00:18:06;;;;;;;4.63;4.00;;;;;;;17.95;87.82;99338.25;5050449;28;20197;-73
2023/05/27 00:20:32;;;;;;;4.50;4.20;;;;;;;18.12;87.31;99343.56;5052755;28;20192;-73
2023/05/27 00:23:00;;;;;;;4.50;4.20;;;;;;;18.22;87.78;99349.09;5055209;28;20643;-73
2023/05/27 00:25:26;;;;;;;4.80;4.30;;;;;;;18.41;86.48;99345.06;5036657;28;20203;-73
2023/05/27 00:27:54;;;;;;;4.40;4.10;;;;;;;18.62;85.56;99344.28;5035372;28;20199;-74
2023/05/27 00:30:22;;;;;;;4.47;3.97;;;;;;;18.61;84.86;99337.25;5055367;28;20619;-73
2023/05/27 00:32:49;;;;;;;3.87;3.57;;;;;;;18.47;85.21;99341.38;5055170;28;20230;-73
2023/05/27 00:35:16;;;;;;;4.03;3.83;;;;;;;18.47;85.29;99333.31;5055242;28;20193;-73
2023/05/27 00:37:43;;;;;;;5.93;4.40;;;;;;;18.42;84.90;99317.91;5055373;28;20197;-73
2023/05/27 00:40:12;;;;;;;5.10;4.73;;;;;;;18.57;85.15;99331.56;5052704;28;20197;-73
2023/05/27 00:42:39;;;;;;;4.70;4.30;;;;;;;18.52;85.17;99311.84;5035294;28;20711;-73
2023/05/27 00:45:07;;;;;;;4.23;3.93;;;;;;;18.50;84.92;99308.63;5035227;28;20284;-73
2023/05/27 00:47:35;;;;;;;4.73;4.53;;;;;;;18.35;85.82;99316.50;5035250;28;20211;-73
2023/05/27 00:50:04;;;;;;;6.03;4.13;;;;;;;18.23;86.45;99318.44;5035161;28;20205;-73
2023/05/27 00:52:30;;;;;;;7.73;4.00;;;;;;;18.09;87.03;99318.00;5040493;28;20199;-73
2023/05/27 00:54:58;;;;;;;4.67;4.37;;;;;;;17.97;87.53;99313.81;5037224;28;20260;-73
2023/05/27 00:57:25;;;;;;;4.77;4.33;;;;;;;18.15;86.98;99325.09;5035177;28;20259;-73
2023/05/27 00:59:52;;;;;;;4.60;4.00;;;;;;;18.24;86.06;99320.06;5034449;28;20673;-75
2023/05/27 01:02:20;;;;;;;4.30;3.90;;;;;;;18.20;85.70;99318.94;5035264;28;20278;-74
2023/05/27 01:04:48;;;;;;;3.90;3.50;;;;;;;18.22;84.82;99322.22;5034857;28;20202;-73
2023/05/27 01:07:23;;;;;;;4.13;3.90;;;;;;;18.19;85.00;99306.56;5034452;28;20198;-72
2023/05/27 01:09:56;;;;;;;4.10;3.90;;;;;;;18.06;85.19;99312.31;5034863;28;20188;-72
2023/05/27 01:12:32;;;;;;;4.10;3.80;;;;;;;18.22;85.46;99306.88;5034481;28;20197;-72
2023/05/27 01:14:59;;;;;;;3.87;3.67;;;;;;;18.34;84.17;99317.56;5045685;28;20630;-74
2023/05/27 01:17:28;;;;;;;4.10;3.73;;;;;;;18.40;83.98;99313.84;5054550;28;20200;-73
2023/05/27 01:19:56;;;;;;;3.87;3.50;;;;;;;18.45;83.10;99319.28;5054559;28;20247;-73
2023/05/27 01:22:29;;;;;;;3.80;3.50;;;;;;;18.43;82.95;99313.38;5052545;28;20597;-73
2023/05/27 01:24:56;;;;;;;4.60;3.47;;;;;;;18.49;82.69;99320.41;5034581;28;20196;-73
2023/05/27 01:27:24;;;;;;;6.27;3.33;;;;;;;18.58;82.44;99327.00;5033978;28;20700;-72
2023/05/27 01:29:52;;;;;;;3.50;3.30;;;;;;;18.61;82.24;99316.53;5034339;28;20654;-72
2023/05/27 01:32:25;;;;;;;3.60;3.40;;;;;;;18.53;82.43;99318.84;5033607;28;20199;-75
2023/05/27 01:35:00;;;;;;;3.53;3.30;;;;;;;18.56;82.83;99315.66;5014864;28;20203;-72
2023/05/27 01:37:32;;;;;;;3.50;3.30;;;;;;;18.67;82.38;99315.53;5014199;28;20666;-73
2023/05/27 01:39:59;;;;;;;4.23;3.97;;;;;;;18.60;81.88;99309.53;5014517;28;20300;-73
2023/05/27 01:42:26;;;;;;;3.97;3.77;;;;;;;18.51;82.01;99299.47;5043868;28;20653;-72
2023/05/27 01:44:56;;;;;;;3.97;3.77;;;;;;;18.31;82.86;99313.47;5054061;28;20190;-71
2023/05/27 01:47:22;;;;;;;4.40;4.00;;;;;;;18.33;83.07;99308.63;5053614;28;20323;-71
2023/05/27 01:49:49;;;;;;;4.10;3.60;;;;;;;18.44;82.49;99306.91;5053656;28;20616;-71
2023/05/27 01:52:16;;;;;;;3.60;3.30;;;;;;;18.62;81.63;99304.72;5039903;28;20201;-72
2023/05/27 01:54:44;;;;;;;4.10;3.20;;;;;;;18.60;81.56;99311.41;5033766;28;20682;-72
2023/05/27 01:57:11;;;;;;;3.50;3.20;;;;;;;18.61;81.38;99305.78;5033800;28;20201;-72
2023/05/27 01:59:37;;;;;;;4.80;3.13;;;;;;;18.66;80.95;99307.72;5033418;28;20562;-72
2023/05/27 02:02:04;;;;;;;3.47;3.37;;;;;;;18.55;80.81;99305.97;5033719;28;20220;-72
2023/05/27 02:04:31;;;;;;;3.77;3.50;;;;;;;18.50;81.13;99303.25;5041761;28;20236;-72
2023/05/27 02:06:58;;;;;;;4.03;3.70;;;;;;;18.55;81.37;99305.97;5033652;28;20190;-72
2023/05/27 02:09:25;;;;;;;3.23;3.03;;;;;;;18.63;81.21;99308.22;5033808;28;20243;-72
2023/05/27 02:11:53;;;;;;;3.53;3.23;;;;;;;18.65;80.68;99311.47;5033452;28;20630;-72
2023/05/27 02:14:19;;;;;;;5.40;3.30;;;;;;;18.69;80.24;99308.03;5033399;28;20194;-72
2023/05/27 02:16:47;;;;;;;3.07;2.87;;;;;;;18.77;80.08;99304.06;5051363;28;20621;-72
2023/05/27 02:19:13;;;;;;;3.53;3.23;;;;;;;18.84;80.29;99305.50;5053322;28;20217;-72
2023/05/27 02:21:40;;;;;;;4.10;3.70;;;;;;;18.87;79.77;99309.56;5052637;28;20667;-73
2023/05/27 02:24:07;;;;;;;4.07;3.00;;;;;;;18.77;80.32;99306.75;5053397;28;20273;-72
2023/05/27 02:26:35;;;;;;;3.47;3.27;;;;;;;18.77;80.83;99301.38;5050471;28;20722;-74
2023/05/27 02:29:03;;;;;;;5.20;3.17;;;;;;;18.66;80.55;99291.59;5033010;28;20198;-72
2023/05/27 02:31:29;;;;;;;3.23;3.03;;;;;;;18.65;81.14;99295.31;5033172;28;20199;-72
2023/05/27 02:33:56;;;;;;;4.20;3.60;;;;;;;18.70;80.79;99290.00;5033322;28;20570;-72
2023/05/27 02:36:23;;;;;;;3.60;3.40;;;;;;;18.58;81.35;99294.72;5046611;28;20196;-72
2023/05/27 02:38:51;;;;;;;4.03;3.33;;;;;;;18.37;81.90;99290.16;5052749;28;20626;-72
2023/05/27 02:41:18;;;;;;;3.63;3.33;;;;;;;18.41;81.83;99289.41;5053063;28;20282;-72
2023/05/27 02:43:45;;;;;;;4.43;3.80;;;;;;;18.38;82.21;99291.78;5052001;28;20224;-71
2023/05/27 02:46:13;;;;;;;3.93;3.63;;;;;;;18.37;82.44;99293.66;5040291;28;20194;-72
2023/05/27 02:48:40;;;;;;;3.60;3.30;;;;;;;18.40;82.06;99303.09;5033077;28;20198;-72
2023/05/27 02:51:07;;;;;;;3.70;3.50;;;;;;;18.46;81.71;99296.72;5031635;28;20259;-72
2023/05/27 02:53:33;;;;;;;4.53;3.00;;;;;;;18.47;81.54;99293.78;5032563;28;20251;-72
2023/05/27 02:56:00;;;;;;;3.73;3.37;;;;;;;18.57;81.42;99298.44;5032441;28;20666;-73
2023/05/27 02:58:27;;;;;;;5.07;3.90;;;;;;;18.60;81.01;99303.34;5046945;28;20197;-73
2023/05/27 03:00:54;;;;;;;3.13;2.93;;;;;;;18.66;80.97;99303.13;5052731;28;20193;-73
2023/05/27 03:03:23;;;;;;;3.53;3.23;;;;;;;18.59;81.05;99305.22;5052705;28;20228;-73
2023/05/27 03:05:50;;;;;;;3.97;3.57;;;;;;;18.61;80.73;99299.56;5034008;28;20205;-73
2023/05/27 03:08:17;;;;;;;3.40;3.10;;;;;;;18.73;80.59;99309.16;5032328;28;20205;-73
2023/05/27 03:10:43;;;;;;;4.70;3.50;;;;;;;18.67;80.70;99306.66;5047925;28;20281;-73
2023/05/27 03:13:10;;;;;;;3.27;3.07;;;;;;;18.69;80.48;99308.03;5052354;28;20254;-72
2023/05/27 03:15:37;;;;;;;4.87;3.20;;;;;;;18.73;79.88;99313.72;5052196;28;20196;-72
2023/05/27 03:18:04;;;;;;;6.80;3.30;;;;;;;18.69;80.18;99312.59;5043477;28;20685;-72
2023/05/27 03:20:32;;;;;;;3.80;3.47;;;;;;;18.74;80.06;99316.16;5032471;28;20194;-72
2023/05/27 03:22:59;;;;;;;4.50;3.10;;;;;;;18.81;79.29;99318.63;5031904;28;20718;-73
2023/05/27 03:25:25;;;;;;;2.97;2.80;;;;;;;18.95;79.20;99327.97;5032278;28;20261;-73
2023/05/27 03:27:53;;;;;;;3.43;3.20;;;;;;;18.85;78.95;99325.13;5034854;28;20255;-72
2023/05/27 03:30:20;;;;;;;5.07;3.40;;;;;;;19.00;78.62;99322.63;5052251;28;20260;-71
2023/05/27 03:32:47;;;;;;;3.20;2.90;;;;;;;19.08;78.03;99322.16;5051525;28;20232;-74
2023/05/27 03:35:13;;;;;;;2.97;2.77;;;;;;;19.04;77.98;99321.84;5051903;28;20250;-72
2023/05/27 03:37:41;;;;;;;3.90;3.10;;;;;;;19.01;77.61;99316.16;5051998;28;20257;-73
2023/05/27 03:40:09;;;;;;;3.30;3.00;;;;;;;19.03;77.49;99319.41;5045645;28;20622;-72
2023/05/27 03:42:36;;;;;;;4.83;2.93;;;;;;;19.05;77.57;99328.03;5032590;28;20715;-72
2023/05/27 03:45:03;;;;;;;6.83;2.87;;;;;;;19.05;77.38;99330.72;5031807;28;20189;-72
2023/05/27 03:47:30;;;;;;;6.50;3.40;;;;;;;19.16;77.04;99340.53;5032343;28;20203;-73
2023/05/27 03:49:56;;;;;;;3.37;2.70;;;;;;;19.29;76.73;99330.22;5032010;28;20575;-73
2023/05/27 03:52:23;;;;;;;3.30;3.03;;;;;;;19.37;76.22;99345.06;5034456;28;20557;-73
2023/05/27 03:54:51;;;;;;;12.13;3.20;;;;;;;19.33;76.33;99335.88;5053986;28;20269;-73
2023/05/27 03:57:18;;;;;;;6.70;3.17;;;;;;;19.53;76.36;99338.75;5055668;28;20192;-73
2023/05/27 03:59:44;;;;;;;3.33;3.20;;;;;;;19.65;75.82;99344.78;5055871;28;20200;-73
2023/05/27 04:02:11;;;;;;;8.43;3.20;;;;;;;19.73;75.71;99347.00;5055800;28;20197;-71
2023/05/27 04:04:38;;;;;;;5.13;3.00;;;;;;;19.86;75.02;99351.94;5054799;28;20219;-74
2023/05/27 04:07:05;;;;;;;3.00;2.80;;;;;;;19.83;75.04;99349.75;5055764;28;20250;-73
2023/05/27 04:09:32;;;;;;;3.20;3.00;;;;;;;19.75;75.33;99355.63;5055052;28;20204;-75
2023/05/27 04:12:00;;;;;;;3.23;2.93;;;;;;;19.77;75.53;99359.69;5055661;28;20193;-73
2023/05/27 04:14:27;;;;;;;2.87;2.77;;;;;;;19.79;74.92;99367.50;5055795;28;20268;-73
2023/05/27 04:16:54;;;;;;;2.57;2.47;;;;;;;19.68;74.88;99355.03;5046889;28;20608;-73
2023/05/27 04:19:22;;;;;;;4.67;2.47;;;;;;;19.83;74.84;99349.75;5035633;28;20264;-73
2023/05/27 04:21:48;;;;;;;5.00;2.73;;;;;;;19.85;75.00;99356.50;5035596;28;20626;-73
2023/05/27 04:24:15;;;;;;;2.77;2.67;;;;;;;19.97;74.10;99348.25;5035413;28;20313;-74
2023/05/27 04:26:42;;;;;;;2.53;2.40;;;;;;;19.97;73.93;99361.72;5035451;28;20197;-73
2023/05/27 04:29:11;;;;;;;5.13;3.30;;;;;;;20.03;74.38;99364.19;5035170;28;20645;-74
2023/05/27 04:31:38;;;;;;;5.10;3.07;;;;;;;20.17;73.66;99369.94;5035503;28;20189;-74
2023/05/27 04:34:05;;;;;;;5.53;3.13;;;;;;;20.29;74.02;99367.88;5035542;28;20232;-73
2023/05/27 04:36:33;;;;;;;4.40;3.03;;;;;;;20.34;74.31;99354.44;5053359;28;20224;-73
2023/05/27 04:39:01;;;;;;;6.20;3.43;;;;;;;20.58;73.06;99371.00;5055405;28;20283;-73
2023/05/27 04:41:28;;;;;;;5.40;2.80;;;;;;;20.76;73.15;99368.63;5055146;28;20193;-73
2023/05/27 04:43:56;;;;;;;6.20;2.93;;;;;;;21.06;72.68;99374.16;5054878;28;20778;-73
2023/05/27 04:46:24;;;;;;;12.80;3.60;;;;;;;21.28;71.11;99372.06;5054748;28;20192;-73
2023/05/27 04:48:52;;;;;;;8.20;3.30;;;;;;;21.54;70.79;99375.56;5034901;28;20189;-71
2023/05/27 04:51:19;;;;;;;3.33;2.87;;;;;;;21.88;68.53;99382.13;5034746;28;20625;-70
2023/05/27 04:53:47;;;;;;;6.00;3.17;;;;;;;22.08;67.95;99387.47;5034925;28;20193;-71
2023/05/27 04:56:15;;;;;;;4.80;2.77;;;;;;;22.31;67.37;99387.72;5034957;28;20193;-70
2023/05/27 04:58:43;;;;;;;3.30;3.00;;;;;;;22.55;66.52;99393.38;5037274;28;20193;-68
2023/05/27 05:01:16;;;;;;;5.03;3.07;;;;;;;22.66;65.08;99401.16;5054828;28;20486;-68
2023/05/27 05:03:52;;;;;;;3.27;2.90;;;;;;;22.80;65.92;99385.97;5053737;28;20300;-68
2023/05/27 05:06:20;;;;;;;7.17;3.10;;;;;;;23.22;63.71;99399.03;5033862;28;20193;-68
2023/05/27 05:08:48;;;;;;;13.40;2.73;;;;;;;23.96;62.53;99400.41;5034583;28;20194;-69
2023/05/27 05:11:15;;;;;;;10.97;3.13;;;;;;;24.43;59.90;99400.47;5043056;28;20240;-69
2023/05/27 05:13:41;;;;;;;5.30;3.63;;;;;;;25.14;56.72;99400.47;5054426;28;20282;-69
2023/05/27 05:16:08;;;;;;;6.60;3.03;;;;;;;25.89;54.72;99407.50;5054721;28;20247;-69
2023/05/27 05:18:35;;;;;;;8.60;3.03;;;;;;;26.12;54.71;99416.66;5054545;28;20196;-69
2023/05/27 05:21:03;;;;;;;4.40;3.33;;;;;;;25.98;53.71;99415.84;5054155;28;20667;-70
2023/05/27 05:23:29;;;;;;;4.97;2.93;;;;;;;25.62;54.12;99407.41;5044715;28;20252;-69
2023/05/27 05:25:58;;;;;;;4.87;2.80;;;;;;;25.29;54.20;99407.63;5034366;28;20258;-69
2023/05/27 05:28:25;;;;;;;4.13;3.30;;;;;;;25.11;56.15;99405.69;5034092;28;20207;-69
2023/05/27 05:30:52;;;;;;;3.10;2.90;;;;;;;25.10;55.70;99412.22;5034004;28;20263;-70
2023/05/27 05:33:18;;;;;;;3.43;3.20;;;;;;;25.29;55.37;99404.91;5053434;28;20773;-70
2023/05/27 05:35:45;;;;;;;3.37;3.00;;;;;;;25.60;53.94;99398.72;5041089;28;20200;-70
2023/05/27 05:38:13;;;;;;;3.40;3.10;;;;;;;25.46;53.69;99406.03;5030210;28;20201;-70
2023/05/27 05:40:40;;;;;;;6.07;2.97;;;;;;;25.28;53.81;99412.28;5013914;28;20198;-71
2023/05/27 05:43:06;;;;;;;6.53;3.30;;;;;;;25.03;53.98;99410.66;5047097;28;20664;-69
2023/05/27 05:45:33;;;;;;;3.37;3.17;;;;;;;24.73;54.83;99405.63;5037365;28;20197;-70
2023/05/27 05:48:00;;;;;;;5.20;2.63;;;;;;;24.85;53.83;99407.91;5033715;28;20196;-71
2023/05/27 05:50:26;;;;;;;3.27;2.40;;;;;;;24.81;53.73;99413.13;5033962;28;20779;-70
2023/05/27 05:52:53;;;;;;;5.57;2.73;;;;;;;24.50;54.32;99403.69;5033968;28;20615;-70
2023/05/27 05:55:21;;;;;;;4.13;2.40;;;;;;;24.06;55.99;99405.75;5033753;28;20204;-70
2023/05/27 05:57:48;;;;;;;2.80;2.60;;;;;;;24.12;55.64;99401.91;5033358;28;20655;-70
2023/05/27 06:00:16;;;;;;;3.37;2.50;;;;;;;23.92;56.82;99399.38;5039483;28;20559;-70
2023/05/27 06:02:42;;;;;;;2.13;2.03;;;;;;;23.46;57.07;99406.22;5053723;28;20204;-70
2023/05/27 06:05:10;;;;;;;3.20;2.20;;;;;;;23.24;58.22;99405.78;5040525;28;20195;-69
2023/05/27 06:07:37;;;;;;;4.47;2.63;;;;;;;23.26;59.26;99406.34;5033442;28;20195;-69
2023/05/27 06:10:04;;;;;;;3.20;2.47;;;;;;;23.16;58.84;99405.56;5032508;28;20198;-69
2023/05/27 06:12:32;;;;;;;4.33;2.30;;;;;;;23.17;59.75;99413.41;5033569;28;20195;-70
2023/05/27 06:14:59;;;;;;;19.00;3.03;;;;;;;22.98;60.01;99415.13;5033569;28;20215;-69
2023/05/27 06:17:26;;;;;;;2.17;2.07;;;;;;;22.75;59.95;99412.25;5033304;28;20191;-69
2023/05/27 06:19:52;;;;;;;5.70;2.80;;;;;;;22.78;61.77;99409.00;5032972;28;20657;-69
2023/05/27 06:22:19;;;;;;;5.20;2.47;;;;;;;22.81;61.01;99422.78;5033060;28;20658;-69
2023/05/27 06:24:45;;;;;;;4.53;2.67;;;;;;;22.81;61.49;99420.09;5042990;28;20645;-69
2023/05/27 06:27:12;;;;;;;6.97;2.93;;;;;;;22.82;61.42;99424.41;5044222;28;20251;-68
2023/05/27 06:29:40;;;;;;;2.63;2.53;;;;;;;22.89;62.72;99422.22;5032344;28;20197;-68
2023/05/27 06:32:07;;;;;;;3.33;2.50;;;;;;;23.09;61.83;99427.56;5032462;28;20337;-69
2023/05/27 06:34:34;;;;;;;3.23;2.63;;;;;;;22.94;61.25;99424.91;5033199;28;20199;-70
2023/05/27 06:37:01;;;;;;;3.83;2.50;;;;;;;22.98;61.17;99431.38;5037797;28;20198;-72
2023/05/27 06:39:27;;;;;;;10.77;3.07;;;;;;;22.98;61.42;99428.69;5031715;28;20622;-70
2023/05/27 06:41:54;;;;;;;9.33;6.40;;;;;;;22.92;62.00;99421.69;5031566;28;20194;-70
2023/05/27 06:44:21;;;;;;;4.97;4.10;;;;;;;23.05;63.21;99426.47;5030626;28;20230;-72
2023/05/27 06:46:49;;;;;;;7.67;3.43;;;;;;;23.27;62.66;99435.06;5030227;28;20218;-70
2023/05/27 06:49:15;;;;;;;3.87;3.17;;;;;;;23.17;62.06;99424.25;5031807;28;20328;-70
2023/05/27 06:51:43;;;;;;;4.40;3.53;;;;;;;23.25;62.19;99429.13;5032149;28;20264;-70
2023/05/27 06:54:10;;;;;;;3.67;3.20;;;;;;;23.16;62.82;99429.94;5030500;28;20204;-71
2023/05/27 06:56:36;;;;;;;3.60;3.30;;;;;;;23.25;62.32;99437.25;5025506;28;20210;-70
2023/05/27 06:59:03;;;;;;;3.93;3.23;;;;;;;;;;5009094;28;20203;-71
2023/05/27 07:01:31;;;;;;;7.07;3.20;;;;;;;23.39;61.69;99443.66;5028341;28;20202;-71
2023/05/27 07:03:59;;;;;;;5.40;3.53;;;;;;;23.38;61.65;99442.06;5027859;28;20718;-75
2023/05/27 07:06:25;;;;;;;3.80;3.17;;;;;;;23.25;62.78;99436.44;5030644;28;20626;-75
2023/05/27 07:08:52;;;;;;;6.17;2.97;;;;;;;23.22;62.54;99437.81;5030218;28;20211;-76
2023/05/27 07:11:19;;;;;;;2.97;2.57;;;;;;;23.16;63.16;99441.59;5062012;28;20199;-75
2023/05/27 07:13:46;;;;;;;5.27;3.50;;;;;;;22.82;63.55;99437.94;5043129;28;20198;-79
2023/05/27 07:16:12;;;;;;;7.47;3.20;;;;;;;22.72;64.94;99437.19;5037811;28;20249;-67
2023/05/27 07:18:39;;;;;;;5.97;3.03;;;;;;;22.77;65.57;99435.25;5029762;28;20198;-68
2023/05/27 07:21:07;;;;;;;4.63;2.90;;;;;;;22.80;65.37;99429.31;5029512;28;20624;-69
2023/05/27 07:23:34;;;;;;;7.00;2.77;;;;;;;22.90;65.25;99434.66;5030203;28;20766;-68
2023/05/27 07:26:01;;;;;;;3.97;3.33;;;;;;;23.09;64.78;99435.69;5044569;28;20204;-69
2023/05/27 07:28:27;;;;;;;5.40;3.37;;;;;;;22.98;64.34;99415.13;5049838;28;20264;-68
2023/05/27 07:30:54;;;;;;;5.20;3.03;;;;;;;23.13;65.19;99434.03;5049611;28;20713;-70
2023/05/27 07:33:21;;;;;;;2.97;2.77;;;;;;;23.11;64.53;99443.53;5050116;28;20292;-70
2023/05/27 07:35:48;;;;;;;3.30;2.90;;;;;;;23.03;63.69;99444.91;5042765;28;20572;-78
2023/05/27 07:38:17;;;;;;;2.87;2.70;;;;;;;22.99;64.36;99441.13;5031238;28;20210;-83
2023/05/27 07:40:43;;;;;;;8.43;3.20;;;;;;;22.88;64.68;99441.47;5032239;28;20204;-87
2023/05/27 07:43:10;;;;;;;13.53;3.90;;;;;;;22.84;65.23;99441.22;5032876;28;20240;-86
2023/05/27 07:45:37;;;;;;;5.77;3.87;;;;;;;22.70;67.47;99434.75;5032006;28;20226;-86
2023/05/27 07:48:04;;;;;;;4.90;3.43;;;;;;;22.61;68.61;99435.56;5034464;28;20245;-86
2023/05/27 07:50:30;;;;;;;3.90;3.60;;;;;;;22.59;69.86;99427.75;5052315;28;20669;-85
2023/05/27 07:52:57;;;;;;;4.43;3.70;;;;;;;22.68;70.38;99428.81;5053659;28;20200;-84
2023/05/27 07:55:25;;;;;;;6.63;3.60;;;;;;;22.82;69.89;99427.13;5052166;28;20262;-83
2023/05/27 07:57:53;;;;;;;4.83;3.60;;;;;;;22.99;71.42;99427.59;5039493;28;20304;-82
2023/05/27 08:00:21;;;;;;;16.50;4.27;;;;;;;23.18;71.49;99423.16;5033165;28;20197;-83
2023/05/27 08:02:47;;;;;;;9.43;3.70;;;;;;;23.34;69.54;99435.56;5035722;28;20195;-86
2023/05/27 08:05:14;;;;;;;11.80;4.60;;;;;;;23.44;68.78;99435.50;5037899;28;20337;-85
2023/05/27 08:07:41;;;;;;;9.13;3.63;;;;;;;23.44;66.86;99435.50;5062593;28;20189;-86
2023/05/27 08:10:09;;;;;;;12.23;4.20;;;;;;;23.59;66.25;99453.56;5074675;28;20185;-86
2023/05/27 08:12:37;;;;;;;3.90;3.63;;;;;;;23.51;65.27;99446.84;5074986;28;20216;-83
2023/05/27 08:15:04;;;;;;;6.50;3.40;;;;;;;23.41;65.91;99454.25;5070744;28;20203;-86
2023/05/27 08:17:31;;;;;;;7.90;3.20;;;;;;;23.37;66.03;99456.72;5052530;28;20225;-86
2023/05/27 08:19:58;;;;;;;7.07;3.73;;;;;;;23.39;66.47;99459.94;5046710;28;20225;-82
2023/05/27 08:22:24;;;;;;;3.77;3.47;;;;;;;23.35;67.16;99458.88;5034979;28;20250;-84
2023/05/27 08:24:51;;;;;;;8.03;4.47;;;;;;;23.39;67.59;99456.41;5033633;28;20235;-84
2023/05/27 08:27:19;;;;;;;7.17;4.10;;;;;;;23.43;67.34;99460.19;5051195;28;20195;-83
2023/05/27 08:29:47;;;;;;;7.70;4.43;;;;;;;23.34;67.63;99451.03;5056234;28;20204;-82
2023/05/27 08:32:14;;;;;;;6.67;4.03;;;;;;;23.40;67.93;99461.56;5049114;28;20203;-82
2023/05/27 08:34:41;;;;;;;4.40;3.90;;;;;;;23.29;68.93;99453.75;5031485;28;20720;-83
2023/05/27 08:37:07;;;;;;;6.43;4.20;;;;;;;23.17;69.24;99454.06;5032195;28;20264;-83
2023/05/27 08:39:34;;;;;;;6.93;4.10;;;;;;;23.05;69.36;99448.16;5031988;28;20202;-81
2023/05/27 08:42:02;;;;;;;5.70;3.90;;;;;;;22.97;70.05;99446.03;5033388;28;20197;-84
2023/05/27 08:44:29;;;;;;;4.27;3.87;;;;;;;22.92;70.23;99440.63;5053278;28;20774;-82
2023/05/27 08:46:58;;;;;;;6.90;3.90;;;;;;;22.74;69.92;99443.16;5055230;28;20204;-83
2023/05/27 08:49:25;;;;;;;6.40;3.80;;;;;;;22.65;69.65;99448.31;5055430;28;20262;-82
2023/05/27 08:51:53;;;;;;;6.13;3.30;;;;;;;22.68;69.24;99452.34;5054796;28;20642;-83
2023/05/27 08:54:21;;;;;;;3.57;2.90;;;;;;;22.72;68.64;99445.31;5055005;28;20193;-86
2023/05/27 08:56:51;;;;;;;6.13;3.10;;;;;;;22.62;67.74;99454.25;5034113;28;20712;-86
2023/05/27 08:59:18;;;;;;;10.10;3.93;;;;;;;22.60;68.14;99456.44;5035297;28;20193;-84
2023/05/27 09:01:45;;;;;;;3.63;3.03;;;;;;;22.68;68.27;99449.66;5034724;28;20741;-85
2023/05/27 09:04:14;;;;;;;7.90;3.53;;;;;;;22.76;68.11;99451.78;5035148;28;20222;-84
2023/05/27 09:06:41;;;;;;;3.70;3.40;;;;;;;22.84;67.73;99462.06;5038587;28;20198;-84
2023/05/27 09:09:09;;;;;;;27.43;5.07;;;;;;;22.87;68.13;99454.19;5054539;28;20593;-87
2023/05/27 09:11:39;;;;;;;12.60;4.37;;;;;;;22.94;67.66;99457.41;5054569;28;20196;-84
2023/05/27 09:14:06;;;;;;;3.73;3.43;;;;;;;22.79;67.70;99419.53;5054745;28;20248;-85
2023/05/27 09:16:33;;;;;;;3.83;3.17;;;;;;;23.12;67.23;99450.56;5054376;28;20200;-87
2023/05/27 09:19:00;;;;;;;5.03;3.00;;;;;;;23.26;65.92;99457.84;5044605;28;20688;-87
2023/05/27 09:21:28;;;;;;;7.33;3.20;;;;;;;23.30;64.74;99458.09;5034705;28;20191;-87
2023/05/27 09:23:57;;;;;;;2.93;2.67;;;;;;;23.29;63.45;99456.47;5034371;28;20552;-87
2023/05/27 09:26:25;;;;;;;4.20;2.80;;;;;;;23.21;62.63;99452.47;5034581;28;20280;-87
2023/05/27 09:28:51;;;;;;;4.63;2.83;;;;;;;23.18;63.71;99452.97;5034763;28;20201;-85
2023/05/27 09:31:18;;;;;;;5.70;3.20;;;;;;;23.14;62.54;99449.19;5046497;28;20197;-87
2023/05/27 09:33:45;;;;;;;4.53;3.00;;;;;;;23.09;62.45;99454.66;5053804;28;20275;-86
2023/05/27 09:36:12;;;;;;;5.93;2.80;;;;;;;23.04;62.72;99446.56;5053593;28;20255;-87
2023/05/27 09:38:41;;;;;;;8.40;2.70;;;;;;;23.10;63.16;99444.59;5054606;28;20206;-86
2023/05/27 09:41:08;;;;;;;4.33;2.87;;;;;;;23.23;63.64;99444.06;5054283;28;20194;-86
2023/05/27 09:43:34;;;;;;;6.07;3.10;;;;;;;23.31;64.96;99440.72;5040597;28;20198;-85
2023/05/27 09:46:04;;;;;;;6.87;3.20;;;;;;;23.39;64.83;99443.66;5034008;28;20235;-85
2023/05/27 09:48:32;;;;;;;8.50;3.80;;;;;;;23.46;64.90;99444.19;5033702;28;20202;-83
2023/05/27 09:50:59;;;;;;;8.20;3.37;;;;;;;23.49;65.12;99437.38;5033989;28;20278;-84
2023/05/27 09:53:26;;;;;;;15.83;4.37;;;;;;;23.51;65.00;99441.44;5033720;28;20607;-80
2023/05/27 09:55:55;;;;;;;5.80;3.10;;;;;;;23.50;64.23;99442.53;5046450;28;20260;-67
2023/05/27 09:58:23;;;;;;;12.17;3.33;;;;;;;23.58;64.72;99438.41;5053399;28;20247;-67
2023/05/27 10:00:50;;;;;;;8.67;2.90;;;;;;;23.76;65.01;99446.69;5053440;28;20686;-67
2023/05/27 10:03:17;;;;;;;4.23;3.10;;;;;;;23.93;64.34;99438.97;5047754;28;20195;-66
2023/05/27 10:05:47;;;;;;;4.80;2.93;;;;;;;24.10;63.98;99439.38;5032755;28;20223;-67
2023/05/27 10:08:14;;;;;;;4.37;3.00;;;;;;;24.29;64.16;99445.72;5033030;28;20236;-66
2023/05/27 10:10:41;;;;;;;3.93;3.37;;;;;;;24.47;63.52;99439.53;5033068;28;20669;-66
2023/05/27 10:13:09;;;;;;;5.33;3.37;;;;;;;24.58;63.56;99435.63;5033233;28;20506;-66
2023/05/27 10:15:36;;;;;;;6.07;3.77;;;;;;;24.62;63.37;99428.56;5032227;28;20204;-68
2023/05/27 10:18:05;;;;;;;5.47;3.20;;;;;;;24.68;63.23;99432.84;5032463;28;20777;-66
2023/05/27 10:20:34;;;;;;;3.87;3.20;;;;;;;24.71;63.22;99434.97;5031534;28;20589;-65
2023/05/27 10:23:11;;;;;;;7.67;3.53;;;;;;;24.76;63.69;99436.84;5030298;28;20196;-66
2023/05/27 10:25:39;;;;;;;12.07;4.03;;;;;;;24.79;62.85;99439.78;5038539;28;20212;-66
2023/05/27 10:28:05;;;;;;;4.30;3.03;;;;;;;24.79;62.36;99431.63;5052712;28;20729;-66
2023/05/27 10:30:45;;;;;;;4.07;2.93;;;;;;;24.84;61.22;99434.28;5052814;28;20196;-67
2023/05/27 10:33:12;;;;;;;4.47;3.00;;;;;;;25.02;61.04;99434.63;5052938;28;20322;-66
2023/05/27 10:35:42;;;;;;;4.00;2.77;;;;;;;25.23;60.24;99431.34;5052876;28;20203;-65
2023/05/27 10:38:17;;;;;;;3.30;2.90;;;;;;;25.40;57.92;99430.88;5040218;28;20262;-65
2023/05/27 10:40:46;;;;;;;10.33;2.87;;;;;;;25.43;55.88;99430.28;5032890;28;20200;-67
2023/05/27 10:43:16;;;;;;;2.83;2.53;;;;;;;25.65;57.51;99422.34;5032584;28;20201;-66
2023/05/27 10:45:45;;;;;;;2.50;2.40;;;;;;;25.87;55.48;99419.78;5034971;28;20228;-67
2023/05/27 10:48:28;;;;;;;2.73;2.53;;;;;;;26.02;54.63;99422.31;5051821;28;20466;-66
2023/05/27 10:50:58;;;;;;;2.47;2.17;;;;;;;26.14;52.72;99419.91;5044146;28;20185;-67
2023/05/27 10:53:27;;;;;;;4.80;2.53;;;;;;;26.31;53.65;99422.88;5032661;28;20573;-65
2023/05/27 10:55:54;;;;;;;5.37;2.50;;;;;;;26.32;52.25;99421.75;5036695;28;20546;-66
2023/05/27 10:58:21;;;;;;;3.43;2.60;;;;;;;26.31;51.44;99415.53;5051841;28;20664;-66
2023/05/27 11:00:51;;;;;;;3.73;2.40;;;;;;;26.30;51.36;99418.53;5052476;28;20196;-66
2023/05/27 11:03:19;;;;;;;2.40;2.30;;;;;;;26.38;51.62;99410.47;5051805;28;20660;-65
2023/05/27 11:05:46;;;;;;;5.07;2.80;;;;;;;26.35;50.42;99410.28;5034282;28;20645;-65
2023/05/27 11:08:13;;;;;;;2.40;2.20;;;;;;;26.40;50.03;99404.72;5039234;28;20197;-66
2023/05/27 11:10:42;;;;;;;3.13;2.43;;;;;;;26.60;50.14;99401.66;5052080;28;20196;-66
2023/05/27 11:13:09;;;;;;;3.30;2.37;;;;;;;26.56;48.75;99401.41;5033079;28;20200;-65
2023/05/27 11:15:35;;;;;;;2.30;2.20;;;;;;;26.61;49.71;99395.06;5031053;28;20193;-67
2023/05/27 11:18:05;;;;;;;2.40;2.30;;;;;;;26.82;47.99;99393.59;5032383;28;20715;-65
2023/05/27 11:20:36;;;;;;;2.40;2.20;;;;;;;26.97;47.40;99390.50;5032489;28;20193;-66
2023/05/27 11:23:03;;;;;;;2.23;2.13;;;;;;;27.11;45.51;99392.09;5031791;28;20665;-66
2023/05/27 11:25:29;;;;;;;2.17;1.97;;;;;;;27.29;47.49;99393.13;5032115;28;20279;-65
2023/05/27 11:27:56;;;;;;;4.50;2.23;;;;;;;27.62;45.10;99386.31;5032236;28;20193;-65
2023/05/27 11:30:27;;;;;;;3.57;1.80;;;;;;;27.80;43.00;99388.88;5031931;28;20256;-66
2023/05/27 11:32:53;;;;;;;8.13;2.03;;;;;;;27.97;41.07;99374.56;5031514;28;20231;-65
2023/05/27 11:35:22;;;;;;;2.10;1.83;;;;;;;28.04;42.09;99362.06;5031760;28;20275;-65